Time;durP1;ratioP1;P1;durP2;ratioP2;P2;SDS_P1;SDS_P2;PMS_P1;PMS_P2;Temp;Humidity;BMP_temperature;BMP_pressure;BME280_temperature;BME280_humidity;BME280_pressure;Samples;Min_cycle;Max_cycle;Signal;HPM_P1;HPM_P2
2021/12/30 00:01:42;;;;;;;24.40;8.80;;;;;;;;;;5103497;27;20035;-75
2021/12/30 00:04:09;;;;;;;26.52;8.90;;;;;;;;;;5082749;27;20042;-81
2021/12/30 00:06:40;;;;;;;29.65;8.40;;;;;;;;;;5104547;28;20047;-81
2021/12/30 00:09:07;;;;;;;45.22;10.73;;;;;;;;;;5106093;28;20063;-81
2021/12/30 00:11:33;;;;;;;30.95;9.90;;;;;;;;;;5107440;27;20456;-81
2021/12/30 00:13:59;;;;;;;22.00;7.65;;;;;;;;;;5104631;28;20047;-81
2021/12/30 00:16:25;;;;;;;32.75;10.40;;;;;;;;;;5092786;28;20065;-81
2021/12/30 00:18:51;;;;;;;25.45;9.30;;;;;;;;;;5077856;27;20464;-75
2021/12/30 00:21:19;;;;;;;32.83;10.18;;;;;;;;;;5105607;28;20049;-81
2021/12/30 00:23:46;;;;;;;24.23;8.45;;;;;;;;;;5106277;28;20436;-75
2021/12/30 00:26:12;;;;;;;29.45;9.43;;;;;;;;;;5089697;27;20110;-75
2021/12/30 00:28:38;;;;;;;31.85;10.40;;;;;;;;;;5091781;27;20039;-75
2021/12/30 00:31:04;;;;;;;34.55;10.15;;;;;;;;;;5092744;28;20043;-75
2021/12/30 00:33:34;;;;;;;34.78;11.35;;;;;;;;;;5113122;27;20042;-75
2021/12/30 00:36:02;;;;;;;34.08;10.43;;;;;;;;;;5095585;27;20146;-74
2021/12/30 00:38:28;;;;;;;28.90;9.60;;;;;;;;;;5090452;27;20097;-75
2021/12/30 00:40:54;;;;;;;37.90;11.52;;;;;;;;;;5101413;27;20074;-75
2021/12/30 00:43:21;;;;;;;28.38;9.93;;;;;;;;;;5107946;27;20483;-75
2021/12/30 00:45:47;;;;;;;36.20;9.85;;;;;;;;;;5111061;27;20043;-75
2021/12/30 00:48:13;;;;;;;28.13;9.98;;;;;;;;;;5109995;27;20149;-75
2021/12/30 00:50:40;;;;;;;40.95;11.43;;;;;;;;;;5093322;27;20391;-75
2021/12/30 00:53:07;;;;;;;34.30;10.80;;;;;;;;;;5095246;27;20106;-75
2021/12/30 00:55:34;;;;;;;35.42;10.95;;;;;;;;;;5092989;27;20486;-75
2021/12/30 00:58:00;;;;;;;42.67;10.68;;;;;;;;;;5111268;27;20444;-81
2021/12/30 01:00:26;;;;;;;29.70;11.27;;;;;;;;;;5111186;27;20436;-81
2021/12/30 01:02:53;;;;;;;30.88;9.45;;;;;;;;;;5090407;27;20587;-81
2021/12/30 01:05:19;;;;;;;29.85;9.38;;;;;;;;;;5108443;27;20241;-81
2021/12/30 01:07:45;;;;;;;30.65;10.43;;;;;;;;;;5112158;27;20039;-81
2021/12/30 01:10:13;;;;;;;37.33;10.57;;;;;;;;;;5110251;27;20027;-81
2021/12/30 01:12:39;;;;;;;37.08;11.30;;;;;;;;;;5109478;27;20471;-75
2021/12/30 01:15:09;;;;;;;31.92;9.40;;;;;;;;;;5100012;27;20343;-75
2021/12/30 01:17:49;;;;;;;42.50;10.98;;;;;;;;;;5094640;27;20383;-75
2021/12/30 01:20:17;;;;;;;32.72;11.02;;;;;;;;;;5093675;27;20380;-75
2021/12/30 01:22:43;;;;;;;40.10;11.32;;;;;;;;;;5106634;27;20455;-75
2021/12/30 01:25:11;;;;;;;34.03;11.30;;;;;;;;;;5093549;27;20131;-82
2021/12/30 01:27:40;;;;;;;35.40;10.77;;;;;;;;;;5108662;27;20043;-81
2021/12/30 01:30:07;;;;;;;31.63;10.00;;;;;;;;;;5108817;27;20380;-81
2021/12/30 01:32:34;;;;;;;33.00;10.07;;;;;;;;;;5111609;27;20034;-81
2021/12/30 01:35:03;;;;;;;26.23;9.50;;;;;;;;;;5110234;27;20421;-81
2021/12/30 01:37:29;;;;;;;33.90;9.88;;;;;;;;;;5109707;27;20081;-82
2021/12/30 01:39:55;;;;;;;34.45;9.63;;;;;;;;;;5108420;27;20047;-81
2021/12/30 01:42:22;;;;;;;38.40;9.88;;;;;;;;;;5067596;28;20411;-81
2021/12/30 01:44:48;;;;;;;36.65;9.50;;;;;;;;;;5094892;27;20047;-81
2021/12/30 01:47:16;;;;;;;27.08;10.68;;;;;;;;;;5090501;27;20498;-75
2021/12/30 01:49:42;;;;;;;29.15;8.52;;;;;;;;;;5086059;27;20031;-75
2021/12/30 01:52:08;;;;;;;24.00;8.65;;;;;;;;;;5107218;27;20249;-74
2021/12/30 01:54:34;;;;;;;32.88;8.32;;;;;;;;;;5103079;27;20126;-75
2021/12/30 01:57:05;;;;;;;30.27;9.25;;;;;;;;;;5092163;27;20085;-75
2021/12/30 01:59:31;;;;;;;26.60;9.20;;;;;;;;;;5093371;27;20073;-75
2021/12/30 02:01:57;;;;;;;23.35;8.65;;;;;;;;;;5092433;27;20118;-75
2021/12/30 02:04:28;;;;;;;28.70;9.55;;;;;;;;;;5104522;27;20061;-75
2021/12/30 02:06:55;;;;;;;23.73;10.57;;;;;;;;;;5107299;27;20039;-75
2021/12/30 02:09:21;;;;;;;32.65;9.57;;;;;;;;;;5091089;27;20122;-75
2021/12/30 02:11:48;;;;;;;30.85;9.40;;;;;;;;;;5107419;27;20039;-75
2021/12/30 02:14:14;;;;;;;24.55;8.45;;;;;;;;;;5092828;27;20047;-81
2021/12/30 02:16:40;;;;;;;29.02;8.93;;;;;;;;;;5090810;28;20157;-81
2021/12/30 02:19:07;;;;;;;27.00;9.07;;;;;;;;;;5084019;28;20185;-81
2021/12/30 02:21:33;;;;;;;31.30;9.75;;;;;;;;;;5103632;27;20572;-81
2021/12/30 02:23:59;;;;;;;22.60;7.93;;;;;;;;;;5099649;27;20040;-81
2021/12/30 02:26:26;;;;;;;23.65;8.05;;;;;;;;;;5106957;27;20066;-81
2021/12/30 02:28:52;;;;;;;39.65;9.93;;;;;;;;;;5092547;27;20047;-81
2021/12/30 02:31:20;;;;;;;26.10;8.40;;;;;;;;;;5072584;28;20090;-81
2021/12/30 02:33:47;;;;;;;31.90;8.60;;;;;;;;;;5084955;28;20043;-82
2021/12/30 02:36:14;;;;;;;33.25;9.13;;;;;;;;;;5102090;27;20032;-81
2021/12/30 02:38:45;;;;;;;30.00;9.38;;;;;;;;;;5074553;28;20046;-81
2021/12/30 02:41:15;;;;;;;34.25;9.75;;;;;;;;;;5103108;27;20055;-81
2021/12/30 02:43:41;;;;;;;26.73;9.73;;;;;;;;;;5087283;28;20040;-81
2021/12/30 02:46:07;;;;;;;21.90;8.25;;;;;;;;;;5088368;27;20043;-81
2021/12/30 02:48:36;;;;;;;24.98;9.23;;;;;;;;;;5101557;27;20165;-81
2021/12/30 02:51:04;;;;;;;38.60;9.45;;;;;;;;;;5102777;27;20135;-81
2021/12/30 02:53:30;;;;;;;28.33;8.77;;;;;;;;;;5100653;28;20154;-81
2021/12/30 02:55:56;;;;;;;28.83;8.98;;;;;;;;;;5084023;28;20036;-81
2021/12/30 02:58:24;;;;;;;38.75;10.63;;;;;;;;;;5085721;28;20075;-81
2021/12/30 03:00:55;;;;;;;42.85;10.70;;;;;;;;;;5105041;27;20082;-82
2021/12/30 03:03:23;;;;;;;41.55;10.88;;;;;;;;;;5106408;27;20449;-81
2021/12/30 03:05:50;;;;;;;39.83;11.27;;;;;;;;;;5102213;27;20047;-82
2021/12/30 03:08:16;;;;;;;41.40;12.00;;;;;;;;;;5106818;27;20114;-81
2021/12/30 03:10:43;;;;;;;40.00;12.10;;;;;;;;;;5085213;28;20556;-81
2021/12/30 03:13:10;;;;;;;45.08;12.52;;;;;;;;;;5077198;28;20451;-81
2021/12/30 03:15:37;;;;;;;36.70;12.80;;;;;;;;;;5085314;28;20032;-82
2021/12/30 03:18:04;;;;;;;32.28;11.20;;;;;;;;;;5069786;28;20380;-82
2021/12/30 03:20:34;;;;;;;53.03;14.18;;;;;;;;;;5085731;28;20051;-82
2021/12/30 03:23:01;;;;;;;38.72;15.10;;;;;;;;;;5084074;28;20444;-82
2021/12/30 03:25:27;;;;;;;36.88;13.88;;;;;;;;;;5065941;28;20124;-82
2021/12/30 03:27:53;;;;;;;45.08;14.35;;;;;;;;;;5075220;28;20040;-74
2021/12/30 03:30:19;;;;;;;38.13;13.68;;;;;;;;;;5087620;28;20369;-75
2021/12/30 03:32:46;;;;;;;53.92;15.05;;;;;;;;;;5083620;28;20046;-76
2021/12/30 03:35:12;;;;;;;39.88;13.98;;;;;;;;;;5068768;28;20040;-75
2021/12/30 03:37:40;;;;;;;57.97;15.75;;;;;;;;;;5067284;28;20287;-75
2021/12/30 03:40:08;;;;;;;46.85;15.68;;;;;;;;;;5082915;28;20040;-75
2021/12/30 03:42:34;;;;;;;45.40;15.93;;;;;;;;;;5085543;28;20043;-75
2021/12/30 03:45:02;;;;;;;44.05;14.98;;;;;;;;;;5070765;28;20462;-75
2021/12/30 03:47:29;;;;;;;49.72;17.23;;;;;;;;;;5083117;28;20093;-75
2021/12/30 03:49:55;;;;;;;36.25;15.80;;;;;;;;;;5069564;28;20194;-75
2021/12/30 03:52:29;;;;;;;56.13;17.23;;;;;;;;;;5051932;28;20157;-75
2021/12/30 03:54:55;;;;;;;33.17;15.30;;;;;;;;;;5053590;28;20496;-75
2021/12/30 03:57:21;;;;;;;37.58;15.00;;;;;;;;;;5064692;28;20043;-75
2021/12/30 03:59:47;;;;;;;34.17;16.08;;;;;;;;;;5069198;28;20114;-75
2021/12/30 04:02:14;;;;;;;53.70;17.15;;;;;;;;;;5084975;28;20312;-75
2021/12/30 04:04:40;;;;;;;38.67;15.70;;;;;;;;;;5070445;28;20088;-75
2021/12/30 04:07:06;;;;;;;36.17;15.05;;;;;;;;;;5080428;28;20191;-81
2021/12/30 04:09:32;;;;;;;41.70;16.55;;;;;;;;;;5088024;28;20051;-81
2021/12/30 04:11:58;;;;;;;46.92;14.52;;;;;;;;;;5096174;28;20033;-75
2021/12/30 04:14:26;;;;;;;42.13;16.38;;;;;;;;;;5106516;27;20043;-75
2021/12/30 04:16:54;;;;;;;49.38;16.42;;;;;;;;;;5108501;27;20052;-75
2021/12/30 04:19:22;;;;;;;40.15;15.32;;;;;;;;;;5102269;27;20047;-75
2021/12/30 04:21:53;;;;;;;58.95;15.55;;;;;;;;;;5105186;27;20340;-75
2021/12/30 04:24:20;;;;;;;31.42;14.98;;;;;;;;;;5106656;27;20368;-75
2021/12/30 04:26:46;;;;;;;46.15;15.23;;;;;;;;;;5098776;27;20040;-75
2021/12/30 04:29:13;;;;;;;42.17;14.40;;;;;;;;;;5108327;27;20039;-75
2021/12/30 04:31:39;;;;;;;58.55;15.55;;;;;;;;;;5107758;27;20036;-75
2021/12/30 04:34:05;;;;;;;43.45;14.60;;;;;;;;;;5089408;28;20043;-80
2021/12/30 04:36:31;;;;;;;49.25;14.25;;;;;;;;;;5103810;27;20168;-81
2021/12/30 04:38:58;;;;;;;49.17;16.95;;;;;;;;;;5108399;27;20067;-81
2021/12/30 04:41:24;;;;;;;53.03;17.25;;;;;;;;;;5083719;28;20028;-81
2021/12/30 04:43:50;;;;;;;49.75;16.10;;;;;;;;;;5104553;27;20031;-81
2021/12/30 04:46:16;;;;;;;61.42;18.90;;;;;;;;;;5107269;27;20031;-81
2021/12/30 04:48:42;;;;;;;42.78;18.08;;;;;;;;;;5110415;27;20047;-81
2021/12/30 04:51:08;;;;;;;56.97;19.95;;;;;;;;;;5091259;28;20035;-81
2021/12/30 04:53:35;;;;;;;55.72;19.33;;;;;;;;;;5093677;28;20070;-81
2021/12/30 04:56:01;;;;;;;51.92;21.30;;;;;;;;;;5089131;27;20487;-81
2021/12/30 04:58:27;;;;;;;62.58;21.48;;;;;;;;;;5101303;27;20147;-81
2021/12/30 05:00:53;;;;;;;56.83;23.15;;;;;;;;;;5104124;27;20468;-81
2021/12/30 05:03:21;;;;;;;62.45;24.30;;;;;;;;;;5086994;28;20149;-75
2021/12/30 05:05:49;;;;;;;62.72;25.08;;;;;;;;;;5089659;28;20114;-75
2021/12/30 05:08:17;;;;;;;55.85;23.42;;;;;;;;;;5093573;28;20071;-75
2021/12/30 05:10:43;;;;;;;72.03;26.55;;;;;;;;;;5104781;27;20054;-75
2021/12/30 05:13:09;;;;;;;81.63;28.65;;;;;;;;;;5089897;28;20100;-75
2021/12/30 05:15:36;;;;;;;80.43;28.52;;;;;;;;;;5107223;27;20218;-75
2021/12/30 05:18:03;;;;;;;77.95;29.10;;;;;;;;;;5104174;27;20036;-75
2021/12/30 05:20:29;;;;;;;81.18;30.52;;;;;;;;;;5081895;27;20031;-75
2021/12/30 05:22:55;;;;;;;79.28;31.10;;;;;;;;;;5101354;27;20185;-75
2021/12/30 05:25:21;;;;;;;76.10;29.38;;;;;;;;;;5086103;28;20122;-82
2021/12/30 05:27:48;;;;;;;83.20;31.20;;;;;;;;;;5087936;27;20459;-81
2021/12/30 05:30:15;;;;;;;78.43;34.72;;;;;;;;;;5105446;27;20039;-81
2021/12/30 05:32:41;;;;;;;66.78;28.00;;;;;;;;;;5090009;28;20379;-81
2021/12/30 05:35:08;;;;;;;81.38;29.80;;;;;;;;;;5090523;28;20070;-81
2021/12/30 05:37:34;;;;;;;68.30;29.58;;;;;;;;;;5091207;27;20068;-81
2021/12/30 05:40:00;;;;;;;62.72;27.58;;;;;;;;;;5097102;27;20040;-81
2021/12/30 05:42:26;;;;;;;64.25;28.33;;;;;;;;;;5112701;27;20088;-75
2021/12/30 05:44:56;;;;;;;65.18;30.08;;;;;;;;;;5104238;27;20084;-75
2021/12/30 05:47:22;;;;;;;74.38;31.20;;;;;;;;;;5088678;28;20143;-75
2021/12/30 05:49:48;;;;;;;69.15;27.95;;;;;;;;;;5088705;27;20082;-75
2021/12/30 05:52:15;;;;;;;57.08;28.35;;;;;;;;;;5104213;27;20122;-75
2021/12/30 05:54:42;;;;;;;64.63;32.70;;;;;;;;;;5104684;27;20348;-75
2021/12/30 05:57:08;;;;;;;67.70;29.75;;;;;;;;;;5105046;27;20141;-75
2021/12/30 05:59:34;;;;;;;71.18;32.20;;;;;;;;;;5103680;27;20184;-75
2021/12/30 06:02:01;;;;;;;65.00;31.45;;;;;;;;;;5105240;27;20066;-75
2021/12/30 06:04:27;;;;;;;75.95;32.92;;;;;;;;;;5070212;28;20149;-81
2021/12/30 06:06:53;;;;;;;78.50;36.35;;;;;;;;;;5103997;28;20047;-81
2021/12/30 06:09:25;;;;;;;80.75;36.67;;;;;;;;;;5110520;27;20032;-81
2021/12/30 06:11:51;;;;;;;93.07;39.90;;;;;;;;;;5102257;27;20040;-81
2021/12/30 06:14:17;;;;;;;88.15;38.92;;;;;;;;;;5101032;27;20048;-81
2021/12/30 06:16:43;;;;;;;82.13;34.70;;;;;;;;;;5103718;27;20043;-81
2021/12/30 06:19:10;;;;;;;83.05;39.60;;;;;;;;;;5105904;27;20127;-81
2021/12/30 06:21:37;;;;;;;63.42;29.55;;;;;;;;;;5085608;28;20505;-81
2021/12/30 06:24:03;;;;;;;85.95;38.75;;;;;;;;;;5081431;28;20040;-81
2021/12/30 06:26:29;;;;;;;80.05;37.90;;;;;;;;;;5103388;27;20138;-81
2021/12/30 06:28:55;;;;;;;61.85;34.70;;;;;;;;;;5099492;27;20065;-81
2021/12/30 06:31:21;;;;;;;62.05;33.17;;;;;;;;;;5099507;28;20035;-81
2021/12/30 06:33:48;;;;;;;56.90;28.95;;;;;;;;;;5103737;27;20387;-81
2021/12/30 06:36:14;;;;;;;53.67;27.65;;;;;;;;;;5104359;27;20036;-81
2021/12/30 06:38:40;;;;;;;54.38;28.48;;;;;;;;;;5096684;27;20096;-81
2021/12/30 06:41:07;;;;;;;57.08;29.13;;;;;;;;;;5115219;27;20123;-81
2021/12/30 06:43:34;;;;;;;57.33;28.33;;;;;;;;;;5095238;27;20517;-82
2021/12/30 06:46:04;;;;;;;65.40;33.53;;;;;;;;;;5087032;28;20431;-81
2021/12/30 06:48:30;;;;;;;74.38;33.92;;;;;;;;;;5096699;27;20166;-81
2021/12/30 06:50:59;;;;;;;61.40;30.25;;;;;;;;;;5101575;27;20044;-75
2021/12/30 06:53:26;;;;;;;54.35;29.48;;;;;;;;;;5101347;28;20035;-75
2021/12/30 06:55:53;;;;;;;48.85;25.58;;;;;;;;;;5097408;27;20047;-75
2021/12/30 06:58:20;;;;;;;39.03;22.58;;;;;;;;;;5107416;27;20491;-75
2021/12/30 07:00:47;;;;;;;33.90;22.83;;;;;;;;;;5086455;28;20121;-75
2021/12/30 07:03:13;;;;;;;38.47;22.83;;;;;;;;;;5085669;28;20431;-75
2021/12/30 07:05:39;;;;;;;38.92;22.40;;;;;;;;;;5087642;28;20491;-75
2021/12/30 07:08:06;;;;;;;33.17;19.58;;;;;;;;;;5103933;27;20043;-75
2021/12/30 07:10:32;;;;;;;36.00;21.30;;;;;;;;;;5104654;27;20039;-75
2021/12/30 07:12:58;;;;;;;44.60;24.45;;;;;;;;;;5087312;28;20169;-75
2021/12/30 07:15:24;;;;;;;44.22;24.98;;;;;;;;;;5089170;28;20083;-75
2021/12/30 07:17:51;;;;;;;34.85;20.45;;;;;;;;;;5089395;28;20043;-78
2021/12/30 07:20:17;;;;;;;36.05;21.55;;;;;;;;;;5104106;27;20130;-80
2021/12/30 07:22:43;;;;;;;30.27;16.17;;;;;;;;;;5099886;28;20047;-81
2021/12/30 07:25:16;;;;;;;31.58;16.20;;;;;;;;;;5097915;28;20071;-80
2021/12/30 07:27:42;;;;;;;32.08;18.50;;;;;;;;;;5102420;27;20391;-75
2021/12/30 07:30:09;;;;;;;25.63;16.80;;;;;;;;;;5071075;28;20038;-75
2021/12/30 07:32:35;;;;;;;26.05;15.40;;;;;;;;;;5104087;27;20040;-74
2021/12/30 07:35:02;;;;;;;27.90;16.27;;;;;;;;;;5064331;28;20044;-81
2021/12/30 07:37:28;;;;;;;23.33;14.73;;;;;;;;;;5069249;28;20047;-80
2021/12/30 07:39:54;;;;;;;20.25;13.20;;;;;;;;;;5102301;28;20126;-80
2021/12/30 07:42:20;;;;;;;25.95;15.07;;;;;;;;;;5100771;28;20047;-80
2021/12/30 07:44:46;;;;;;;20.85;14.25;;;;;;;;;;5088346;28;20080;-81
2021/12/30 07:47:13;;;;;;;26.95;14.10;;;;;;;;;;5102896;28;20483;-80
2021/12/30 07:49:39;;;;;;;26.58;14.75;;;;;;;;;;5100521;28;20510;-80
2021/12/30 07:52:06;;;;;;;23.90;12.50;;;;;;;;;;5115272;27;20384;-78
2021/12/30 07:54:32;;;;;;;21.50;12.68;;;;;;;;;;5097668;28;20031;-77
2021/12/30 07:56:59;;;;;;;21.77;13.60;;;;;;;;;;5096815;28;20047;-78
2021/12/30 07:59:25;;;;;;;26.42;14.15;;;;;;;;;;5098484;28;20047;-78
2021/12/30 08:01:51;;;;;;;22.65;14.63;;;;;;;;;;5096483;28;20172;-78
2021/12/30 08:04:17;;;;;;;21.52;13.48;;;;;;;;;;5085964;28;20047;-78
2021/12/30 08:06:43;;;;;;;24.67;14.05;;;;;;;;;;5098796;28;20040;-78
2021/12/30 08:09:09;;;;;;;26.23;15.75;;;;;;;;;;5071494;28;20039;-78
2021/12/30 08:11:36;;;;;;;25.80;14.55;;;;;;;;;;5082906;28;20044;-78
2021/12/30 08:14:02;;;;;;;27.58;15.75;;;;;;;;;;5104557;28;20376;-78
2021/12/30 08:16:29;;;;;;;27.02;14.93;;;;;;;;;;5099002;28;20048;-78
2021/12/30 08:18:55;;;;;;;29.42;16.45;;;;;;;;;;5102326;28;20043;-78
2021/12/30 08:21:22;;;;;;;27.35;14.35;;;;;;;;;;5093431;28;20480;-79
2021/12/30 08:23:51;;;;;;;27.23;13.90;;;;;;;;;;5121824;27;20051;-87
2021/12/30 08:26:19;;;;;;;26.23;12.57;;;;;;;;;;5097064;28;20214;-79
2021/12/30 08:28:46;;;;;;;26.83;13.85;;;;;;;;;;5109649;27;20323;-79
2021/12/30 08:31:14;;;;;;;20.95;9.80;;;;;;;;;;5100621;28;20036;-79
2021/12/30 08:33:40;;;;;;;20.70;10.63;;;;;;;;;;5079251;28;20515;-81
2021/12/30 08:36:06;;;;;;;30.27;10.40;;;;;;;;;;5095085;28;20040;-79
2021/12/30 08:38:33;;;;;;;15.45;9.00;;;;;;;;;;5083071;28;20036;-79
2021/12/30 08:41:00;;;;;;;33.83;9.73;;;;;;;;;;5075774;28;20059;-78
2021/12/30 08:43:26;;;;;;;22.48;9.80;;;;;;;;;;5098957;28;20061;-80
2021/12/30 08:45:53;;;;;;;26.58;9.90;;;;;;;;;;5103663;28;20040;-78
2021/12/30 08:48:22;;;;;;;26.20;8.90;;;;;;;;;;5102600;28;20058;-79
2021/12/30 08:50:48;;;;;;;28.73;8.77;;;;;;;;;;5113599;28;20031;-79
2021/12/30 08:53:15;;;;;;;20.35;8.00;;;;;;;;;;5101954;27;20036;-78
2021/12/30 08:55:41;;;;;;;16.70;7.28;;;;;;;;;;5102851;27;20115;-78
2021/12/30 08:58:08;;;;;;;21.90;7.75;;;;;;;;;;5103789;27;20047;-78
2021/12/30 09:00:38;;;;;;;19.65;7.50;;;;;;;;;;5098077;28;20428;-78
2021/12/30 09:03:05;;;;;;;19.40;7.65;;;;;;;;;;5068626;28;20426;-79
2021/12/30 09:05:35;;;;;;;16.73;6.75;;;;;;;;;;5108364;27;20142;-78
2021/12/30 09:08:01;;;;;;;16.35;6.95;;;;;;;;;;5101755;27;20625;-79
2021/12/30 09:10:30;;;;;;;22.58;6.63;;;;;;;;;;5089698;28;20040;-79
2021/12/30 09:12:56;;;;;;;21.30;6.75;;;;;;;;;;5089984;28;20101;-79
2021/12/30 09:15:26;;;;;;;19.83;7.32;;;;;;;;;;5091088;28;20044;-79
2021/12/30 09:17:52;;;;;;;19.35;6.10;;;;;;;;;;5109250;27;20089;-79
2021/12/30 09:20:19;;;;;;;15.90;6.57;;;;;;;;;;5089734;28;20039;-79
2021/12/30 09:22:45;;;;;;;14.88;6.68;;;;;;;;;;5084649;28;20070;-79
2021/12/30 09:25:11;;;;;;;16.38;6.00;;;;;;;;;;5104713;27;20514;-74
2021/12/30 09:27:39;;;;;;;20.55;5.93;;;;;;;;;;5081605;28;20036;-74
2021/12/30 09:30:08;;;;;;;20.63;7.78;;;;;;;;;;5080700;28;20035;-74
2021/12/30 09:32:34;;;;;;;17.55;5.65;;;;;;;;;;5105534;27;20053;-74
2021/12/30 09:35:01;;;;;;;14.85;6.07;;;;;;;;;;5105810;27;20452;-79
2021/12/30 09:37:27;;;;;;;12.80;5.78;;;;;;;;;;5103376;28;20509;-79
2021/12/30 09:39:54;;;;;;;18.50;6.43;;;;;;;;;;5080827;28;20086;-80
2021/12/30 09:42:20;;;;;;;16.23;6.70;;;;;;;;;;5084568;27;20460;-80
2021/12/30 09:44:47;;;;;;;23.42;8.40;;;;;;;;;;5099032;28;20474;-79
2021/12/30 09:47:13;;;;;;;20.35;6.68;;;;;;;;;;5086416;28;20073;-80
2021/12/30 09:49:39;;;;;;;19.08;6.18;;;;;;;;;;5078365;28;20031;-80
2021/12/30 09:52:05;;;;;;;16.40;6.07;;;;;;;;;;5104968;27;20624;-80
2021/12/30 09:54:32;;;;;;;24.95;7.00;;;;;;;;;;5101469;27;20112;-80
2021/12/30 09:56:58;;;;;;;15.82;5.97;;;;;;;;;;5097656;27;20036;-80
2021/12/30 09:59:24;;;;;;;19.83;6.82;;;;;;;;;;5089981;28;20047;-80
2021/12/30 10:01:51;;;;;;;15.93;5.38;;;;;;;;;;5089184;28;20202;-80
2021/12/30 10:04:17;;;;;;;19.55;6.47;;;;;;;;;;5099298;28;20079;-80
2021/12/30 10:06:45;;;;;;;22.95;6.72;;;;;;;;;;5098830;28;20051;-80
2021/12/30 10:09:14;;;;;;;22.40;6.00;;;;;;;;;;5106502;27;20046;-79
2021/12/30 10:12:01;;;;;;;23.02;6.63;;;;;;;;;;5087318;28;20047;-80
2021/12/30 10:14:32;;;;;;;19.98;5.60;;;;;;;;;;5099493;27;20690;-79
2021/12/30 10:17:18;;;;;;;17.20;6.18;;;;;;;;;;5071016;28;20472;-80
2021/12/30 10:19:44;;;;;;;24.45;6.35;;;;;;;;;;5080940;28;20031;-80
2021/12/30 10:22:15;;;;;;;27.00;6.50;;;;;;;;;;5068944;28;20036;-80
2021/12/30 10:24:41;;;;;;;20.58;6.35;;;;;;;;;;5087410;28;20365;-80
2021/12/30 10:27:08;;;;;;;17.67;5.95;;;;;;;;;;5084026;28;20047;-80
2021/12/30 10:29:44;;;;;;;21.58;6.00;;;;;;;;;;5100667;27;20038;-82
2021/12/30 10:32:16;;;;;;;23.42;6.95;;;;;;;;;;5099774;27;20259;-82
2021/12/30 10:35:01;;;;;;;19.92;6.50;;;;;;;;;;5081660;28;20060;-82
2021/12/30 10:37:27;;;;;;;22.48;7.35;;;;;;;;;;5084024;28;20050;-74
2021/12/30 10:39:54;;;;;;;24.05;7.75;;;;;;;;;;5065760;28;20040;-73
2021/12/30 10:42:21;;;;;;;24.85;7.97;;;;;;;;;;5080625;28;20054;-74
2021/12/30 10:44:49;;;;;;;24.98;7.82;;;;;;;;;;5061395;28;20067;-74
2021/12/30 10:47:15;;;;;;;28.23;9.32;;;;;;;;;;5084289;28;20133;-74
2021/12/30 10:49:41;;;;;;;28.35;8.63;;;;;;;;;;5083849;28;20126;-82
2021/12/30 10:52:07;;;;;;;28.58;8.30;;;;;;;;;;5087332;28;20043;-81
2021/12/30 10:54:37;;;;;;;28.60;7.30;;;;;;;;;;5081742;28;20383;-82
2021/12/30 10:57:10;;;;;;;26.30;8.55;;;;;;;;;;5067069;28;20047;-81
2021/12/30 10:59:41;;;;;;;27.85;7.95;;;;;;;;;;5076801;28;20247;-82
2021/12/30 11:02:18;;;;;;;32.72;10.15;;;;;;;;;;5084110;28;20468;-82
2021/12/30 11:04:58;;;;;;;22.52;9.20;;;;;;;;;;5083429;28;20036;-84
2021/12/30 11:07:25;;;;;;;32.47;9.88;;;;;;;;;;5052571;28;20097;-82
2021/12/30 11:09:59;;;;;;;30.58;9.75;;;;;;;;;;5079728;28;20047;-83
2021/12/30 11:12:28;;;;;;;31.23;10.85;;;;;;;;;;5081761;28;20127;-82
2021/12/30 11:14:55;;;;;;;39.15;11.13;;;;;;;;;;5077578;28;20054;-82
2021/12/30 11:17:29;;;;;;;29.15;10.18;;;;;;;;;;5082949;28;20451;-81
2021/12/30 11:20:00;;;;;;;45.72;10.88;;;;;;;;;;5084938;28;20442;-81
2021/12/30 11:22:27;;;;;;;37.45;11.10;;;;;;;;;;5078679;28;20039;-81
2021/12/30 11:24:55;;;;;;;42.42;10.95;;;;;;;;;;5090703;28;20051;-82
2021/12/30 11:27:22;;;;;;;29.63;9.27;;;;;;;;;;5069673;28;20495;-82
2021/12/30 11:29:51;;;;;;;32.10;11.75;;;;;;;;;;5069499;28;20077;-83
2021/12/30 11:32:18;;;;;;;35.03;9.88;;;;;;;;;;5096862;28;20391;-83
2021/12/30 11:34:45;;;;;;;27.10;9.85;;;;;;;;;;5098127;28;20380;-80
2021/12/30 11:37:14;;;;;;;28.67;10.57;;;;;;;;;;5099378;27;20047;-82
2021/12/30 11:39:45;;;;;;;48.92;12.73;;;;;;;;;;5093952;28;20134;-81
2021/12/30 11:42:22;;;;;;;30.58;8.90;;;;;;;;;;5099374;28;20051;-81
2021/12/30 11:44:53;;;;;;;33.17;11.23;;;;;;;;;;5097456;27;20047;-81
2021/12/30 11:47:34;;;;;;;32.03;9.93;;;;;;;;;;5087497;28;20125;-80
2021/12/30 11:50:07;;;;;;;36.75;10.52;;;;;;;;;;5071905;28;20042;-81
2021/12/30 11:52:51;;;;;;;30.60;11.73;;;;;;;;;;5106318;28;20039;-81
2021/12/30 11:55:38;;;;;;;30.42;10.95;;;;;;;;;;5087540;28;20039;-80
2021/12/30 11:58:23;;;;;;;47.95;11.63;;;;;;;;;;5084857;28;20052;-80
2021/12/30 12:00:50;;;;;;;30.05;10.35;;;;;;;;;;5077370;28;20091;-81
2021/12/30 12:03:28;;;;;;;33.70;10.65;;;;;;;;;;5097930;28;20044;-81
2021/12/30 12:05:54;;;;;;;25.23;9.95;;;;;;;;;;5090852;28;20078;-80
2021/12/30 12:08:20;;;;;;;35.30;11.27;;;;;;;;;;5086068;28;20503;-80
2021/12/30 12:11:06;;;;;;;27.60;9.82;;;;;;;;;;5087109;28;20078;-79
2021/12/30 12:13:37;;;;;;;27.33;9.10;;;;;;;;;;5089644;28;20479;-79
2021/12/30 12:16:03;;;;;;;27.85;8.75;;;;;;;;;;5106918;28;20424;-79
2021/12/30 12:18:30;;;;;;;27.42;9.77;;;;;;;;;;5103054;27;20119;-79
2021/12/30 12:21:01;;;;;;;31.67;10.90;;;;;;;;;;5089378;28;20463;-79
2021/12/30 12:23:34;;;;;;;29.42;10.15;;;;;;;;;;5088453;28;20051;-79
2021/12/30 12:26:09;;;;;;;30.33;10.60;;;;;;;;;;5100544;27;20402;-79
2021/12/30 12:28:36;;;;;;;30.58;10.10;;;;;;;;;;5105120;27;20422;-79
2021/12/30 12:31:03;;;;;;;21.38;8.90;;;;;;;;;;5089362;27;20031;-81
2021/12/30 12:33:32;;;;;;;29.80;9.73;;;;;;;;;;5090770;27;20039;-80
2021/12/30 12:35:58;;;;;;;30.63;9.13;;;;;;;;;;5094374;27;20070;-80
2021/12/30 12:38:44;;;;;;;27.88;8.73;;;;;;;;;;5093808;27;20067;-80
2021/12/30 12:41:19;;;;;;;27.75;8.45;;;;;;;;;;5106079;27;20466;-80
2021/12/30 12:43:45;;;;;;;29.27;8.43;;;;;;;;;;5122245;27;20625;-80
2021/12/30 12:46:11;;;;;;;25.13;10.05;;;;;;;;;;5065908;27;20035;-73
2021/12/30 12:48:39;;;;;;;29.83;9.95;;;;;;;;;;5090137;27;20067;-74
2021/12/30 12:51:26;;;;;;;24.35;8.52;;;;;;;;;;5088957;27;20043;-74
2021/12/30 12:54:03;;;;;;;20.00;7.85;;;;;;;;;;5106978;27;20051;-74
2021/12/30 12:56:30;;;;;;;29.77;9.30;;;;;;;;;;5087309;27;20032;-74
2021/12/30 12:58:58;;;;;;;21.33;7.32;;;;;;;;;;5094927;27;20478;-74
2021/12/30 13:01:25;;;;;;;28.83;10.07;;;;;;;;;;5087770;27;20042;-74
2021/12/30 13:03:52;;;;;;;20.77;7.40;;;;;;;;;;5109940;27;20117;-82
2021/12/30 13:06:28;;;;;;;26.00;8.82;;;;;;;;;;5106722;27;20261;-81
2021/12/30 13:08:55;;;;;;;33.28;9.30;;;;;;;;;;5088145;27;20040;-75
2021/12/30 13:11:29;;;;;;;30.17;10.90;;;;;;;;;;5108361;27;20261;-74
2021/12/30 13:13:56;;;;;;;30.77;9.43;;;;;;;;;;5107305;27;20093;-74
2021/12/30 13:16:27;;;;;;;27.80;9.55;;;;;;;;;;5108665;27;20047;-74
2021/12/30 13:19:02;;;;;;;27.98;8.52;;;;;;;;;;5108536;27;20066;-74
2021/12/30 13:21:37;;;;;;;22.27;8.90;;;;;;;;;;5095201;27;20043;-74
2021/12/30 13:24:03;;;;;;;31.33;9.93;;;;;;;;;;5101393;27;20035;-74
2021/12/30 13:26:36;;;;;;;38.30;9.38;;;;;;;;;;5092410;27;20212;-74
2021/12/30 13:29:02;;;;;;;28.95;8.98;;;;;;;;;;5104334;27;20050;-74
2021/12/30 13:31:31;;;;;;;27.17;8.30;;;;;;;;;;5105817;27;20035;-74
2021/12/30 13:34:02;;;;;;;27.23;10.25;;;;;;;;;;5082296;27;20080;-74
2021/12/30 13:36:29;;;;;;;23.05;8.48;;;;;;;;;;5087610;27;20027;-74
2021/12/30 13:39:08;;;;;;;25.00;9.63;;;;;;;;;;5088687;27;20047;-74
2021/12/30 13:41:34;;;;;;;27.33;10.25;;;;;;;;;;5103805;27;20118;-74
2021/12/30 13:44:08;;;;;;;20.25;8.43;;;;;;;;;;5104186;27;20051;-74
2021/12/30 13:46:34;;;;;;;27.50;9.60;;;;;;;;;;5081647;27;20039;-74
2021/12/30 13:49:00;;;;;;;30.08;9.98;;;;;;;;;;5105040;27;20091;-75
2021/12/30 13:51:28;;;;;;;34.35;9.85;;;;;;;;;;5103337;27;20039;-83
2021/12/30 13:53:56;;;;;;;27.65;9.70;;;;;;;;;;5091514;27;20200;-81
2021/12/30 13:56:23;;;;;;;25.33;8.30;;;;;;;;;;5084265;27;21539;-81
2021/12/30 13:58:51;;;;;;;24.05;9.75;;;;;;;;;;5091102;27;20427;-84
2021/12/30 14:01:18;;;;;;;35.35;9.38;;;;;;;;;;5107676;27;20080;-81
2021/12/30 14:03:46;;;;;;;22.10;9.23;;;;;;;;;;5106250;27;20313;-81
2021/12/30 14:06:16;;;;;;;33.28;9.23;;;;;;;;;;5089587;27;20486;-83
2021/12/30 14:09:11;;;;;;;26.67;9.82;;;;;;;;;;5112654;27;20130;-83
2021/12/30 14:11:40;;;;;;;33.95;9.98;;;;;;;;;;5091729;27;20040;-82
2021/12/30 14:14:08;;;;;;;36.20;8.73;;;;;;;;;;5094588;27;20136;-82
2021/12/30 14:16:37;;;;;;;23.02;9.75;;;;;;;;;;5108269;27;20202;-82
2021/12/30 14:19:04;;;;;;;28.80;8.98;;;;;;;;;;5113931;27;20066;-74
2021/12/30 14:21:31;;;;;;;25.42;8.75;;;;;;;;;;5101778;27;20130;-73
2021/12/30 14:24:08;;;;;;;27.13;9.88;;;;;;;;;;5081197;27;20043;-73
2021/12/30 14:26:35;;;;;;;28.23;8.40;;;;;;;;;;5098948;27;20067;-73
2021/12/30 14:29:03;;;;;;;29.48;9.60;;;;;;;;;;5083294;27;20097;-73